Time;durP1;ratioP1;P1;durP2;ratioP2;P2;SDS_P1;SDS_P2;PMS_P1;PMS_P2;Temp;Humidity;BMP_temperature;BMP_pressure;BME280_temperature;BME280_humidity;BME280_pressure;Samples;Min_cycle;Max_cycle;Signal;HPM_P1;HPM_P2
2024/03/09 00:00:25;;;;;;;;;;;6.10;99.90;;;;;;4971808;28;19909;-69
2024/03/09 00:02:51;;;;;;;;;;;6.20;99.90;;;;;;4970013;28;20573;-70
2024/03/09 00:05:17;;;;;;;;;;;6.10;99.90;;;;;;4971496;28;20012;-70
2024/03/09 00:07:43;;;;;;;;;;;6.10;99.90;;;;;;4971732;28;19917;-70
2024/03/09 00:10:11;;;;;;;;;;;6.10;99.90;;;;;;4972068;28;19906;-70
2024/03/09 00:12:37;;;;;;;;;;;6.10;99.90;;;;;;4972252;28;19910;-68
2024/03/09 00:15:03;;;;;;;;;;;6.00;99.90;;;;;;4971840;28;19967;-67
2024/03/09 00:17:29;;;;;;;;;;;6.10;99.90;;;;;;4971820;28;19921;-67
2024/03/09 00:19:58;;;;;;;;;;;6.20;99.90;;;;;;4971539;28;19910;-66
2024/03/09 00:22:25;;;;;;;;;;;6.20;99.90;;;;;;4971511;28;19952;-67
2024/03/09 00:24:52;;;;;;;;;;;6.20;99.90;;;;;;4970994;28;19906;-66
2024/03/09 00:27:23;;;;;;;;;;;6.30;99.90;;;;;;4970773;28;20267;-67
2024/03/09 00:29:48;;;;;;;;;;;6.30;99.90;;;;;;4971269;28;19913;-66
2024/03/09 00:32:14;;;;;;;;;;;6.40;99.90;;;;;;4971019;28;19906;-66
2024/03/09 00:34:39;;;;;;;;;;;6.30;99.90;;;;;;4971038;28;19914;-67
2024/03/09 00:37:07;;;;;;;;;;;6.30;99.90;;;;;;4970676;28;20609;-66
2024/03/09 00:39:33;;;;;;;;;;;6.30;99.90;;;;;;4970689;28;19916;-66
2024/03/09 00:41:59;;;;;;;;;;;6.40;99.90;;;;;;4970944;28;19906;-66
2024/03/09 00:44:24;;;;;;;;;;;6.30;99.90;;;;;;4971108;28;19910;-66
2024/03/09 00:46:50;;;;;;;;;;;6.40;99.90;;;;;;4970939;28;19916;-66
2024/03/09 00:49:16;;;;;;;;;;;6.40;99.90;;;;;;4969833;28;20014;-67
2024/03/09 00:51:41;;;;;;;;;;;6.40;99.90;;;;;;4971172;28;20569;-66
2024/03/09 00:54:07;;;;;;;;;;;6.50;99.90;;;;;;4970929;28;19914;-66
2024/03/09 00:56:33;;;;;;;;;;;6.40;99.90;;;;;;4970393;28;20377;-67
2024/03/09 00:59:00;;;;;;;;;;;6.30;99.90;;;;;;4969892;28;20048;-67
2024/03/09 01:01:26;;;;;;;;;;;6.40;99.90;;;;;;4970316;28;19929;-67
2024/03/09 01:03:52;;;;;;;;;;;6.50;99.90;;;;;;4970606;28;19910;-66
2024/03/09 01:06:21;;;;;;;;;;;6.50;99.90;;;;;;4971065;28;19946;-66
2024/03/09 01:08:49;;;;;;;;;;;6.50;99.90;;;;;;4970018;28;20452;-67
2024/03/09 01:11:16;;;;;;;;;;;6.50;99.90;;;;;;4989879;28;20300;-66
2024/03/09 01:13:41;;;;;;;;;;;6.60;99.90;;;;;;4990316;28;19906;-66
2024/03/09 01:16:07;;;;;;;;;;;6.70;99.90;;;;;;4988374;28;19928;-69
2024/03/09 01:18:32;;;;;;;;;;;6.60;99.90;;;;;;4989891;28;19909;-67
2024/03/09 01:20:58;;;;;;;;;;;6.70;99.90;;;;;;4971436;28;19906;-69
2024/03/09 01:23:23;;;;;;;;;;;6.80;99.90;;;;;;4970675;28;20374;-67
2024/03/09 01:25:52;;;;;;;;;;;6.80;99.90;;;;;;4970207;28;20386;-68
2024/03/09 01:28:17;;;;;;;;;;;6.90;99.90;;;;;;4970603;28;19992;-68
2024/03/09 01:30:43;;;;;;;;;;;6.90;99.90;;;;;;4971000;28;19969;-69
2024/03/09 01:33:09;;;;;;;;;;;6.80;99.90;;;;;;4970069;28;20421;-70
2024/03/09 01:35:34;;;;;;;;;;;6.80;99.90;;;;;;4970041;28;19910;-69
2024/03/09 01:38:00;;;;;;;;;;;6.90;99.90;;;;;;4969542;28;19949;-68
2024/03/09 01:40:26;;;;;;;;;;;6.90;99.90;;;;;;4968359;28;20393;-70
2024/03/09 01:42:51;;;;;;;;;;;6.90;99.90;;;;;;4969684;28;20559;-70
2024/03/09 01:45:16;;;;;;;;;;;7.00;99.90;;;;;;4969637;28;19930;-71
2024/03/09 01:47:42;;;;;;;;;;;6.90;99.90;;;;;;4970490;28;20449;-70
2024/03/09 01:50:10;;;;;;;;;;;6.90;99.90;;;;;;4970966;28;19910;-70
2024/03/09 01:52:36;;;;;;;;;;;7.00;99.90;;;;;;4970175;28;19921;-66
2024/03/09 01:55:04;;;;;;;;;;;7.00;99.90;;;;;;4969713;28;19913;-66
2024/03/09 01:57:29;;;;;;;;;;;7.00;99.90;;;;;;5000110;28;19914;-66
2024/03/09 01:59:56;;;;;;;;;;;7.00;99.90;;;;;;4967752;28;19914;-67
2024/03/09 02:02:22;;;;;;;;;;;7.00;99.90;;;;;;4969914;28;19916;-66
2024/03/09 02:04:48;;;;;;;;;;;7.00;99.90;;;;;;4969580;28;19913;-67
2024/03/09 02:07:16;;;;;;;;;;;7.00;99.90;;;;;;4969890;28;19909;-66
2024/03/09 02:09:43;;;;;;;;;;;7.10;99.90;;;;;;4969662;28;19965;-66
2024/03/09 02:12:09;;;;;;;;;;;7.10;99.90;;;;;;4969408;28;19910;-66
2024/03/09 02:14:36;;;;;;;;;;;7.10;99.90;;;;;;4969671;28;19913;-66
2024/03/09 02:17:07;;;;;;;;;;;7.20;99.90;;;;;;4969294;28;19918;-66
2024/03/09 02:19:36;;;;;;;;;;;7.20;99.90;;;;;;4969506;28;19910;-66
2024/03/09 02:22:02;;;;;;;;;;;7.20;99.90;;;;;;4969720;28;19957;-67
2024/03/09 02:24:29;;;;;;;;;;;7.20;99.90;;;;;;4969373;28;19913;-67
2024/03/09 02:26:55;;;;;;;;;;;7.40;99.90;;;;;;4969449;28;20000;-66
2024/03/09 02:29:23;;;;;;;;;;;7.50;99.90;;;;;;4969266;28;20008;-68
2024/03/09 02:31:49;;;;;;;;;;;7.50;99.90;;;;;;4969029;28;19917;-67
2024/03/09 02:34:15;;;;;;;;;;;7.60;99.90;;;;;;4969410;28;19964;-66
2024/03/09 02:36:42;;;;;;;;;;;7.60;99.90;;;;;;4969374;28;19914;-68
2024/03/09 02:39:09;;;;;;;;;;;7.60;99.90;;;;;;4969131;28;19914;-67
2024/03/09 02:41:34;;;;;;;;;;;7.70;99.90;;;;;;4969278;28;19949;-67
2024/03/09 02:44:00;;;;;;;;;;;7.80;99.90;;;;;;4969220;28;19968;-66
2024/03/09 02:46:25;;;;;;;;;;;7.80;99.90;;;;;;4969284;28;19914;-67
2024/03/09 02:48:53;;;;;;;;;;;7.80;99.90;;;;;;4968931;28;19937;-67
2024/03/09 02:51:19;;;;;;;;;;;7.80;99.90;;;;;;4968633;28;19910;-66
2024/03/09 02:53:45;;;;;;;;;;;7.80;99.90;;;;;;4969561;28;19913;-66
2024/03/09 02:56:11;;;;;;;;;;;7.80;99.90;;;;;;4969139;28;19914;-66
2024/03/09 02:58:37;;;;;;;;;;;7.90;99.90;;;;;;4969149;28;19920;-66
2024/03/09 03:01:03;;;;;;;;;;;7.90;99.90;;;;;;4975417;28;19910;-67
2024/03/09 03:03:45;;;;;;;;;;;8.00;99.90;;;;;;4988438;28;19910;-66
2024/03/09 03:06:10;;;;;;;;;;;7.90;99.90;;;;;;4986775;28;19914;-67
2024/03/09 03:08:36;;;;;;;;;;;8.10;99.90;;;;;;4988319;28;19909;-66
2024/03/09 03:11:01;;;;;;;;;;;8.10;99.90;;;;;;4988109;28;20334;-68
2024/03/09 03:13:27;;;;;;;;;;;8.00;99.90;;;;;;4976821;28;19910;-66
2024/03/09 03:15:52;;;;;;;;;;;8.00;99.90;;;;;;4968342;28;20378;-67
2024/03/09 03:18:19;;;;;;;;;;;7.90;99.90;;;;;;4968315;28;20708;-70
2024/03/09 03:20:44;;;;;;;;;;;7.80;99.90;;;;;;4968715;28;19910;-69
2024/03/09 03:23:10;;;;;;;;;;;7.80;99.90;;;;;;4968880;28;19917;-69
2024/03/09 03:25:36;;;;;;;;;;;7.80;99.90;;;;;;4968804;28;19914;-70
2024/03/09 03:28:03;;;;;;;;;;;7.90;99.90;;;;;;4968233;28;19910;-67
2024/03/09 03:30:29;;;;;;;;;;;7.90;99.90;;;;;;4969066;28;19916;-66
2024/03/09 03:32:54;;;;;;;;;;;8.00;99.90;;;;;;4967048;28;20338;-67
2024/03/09 03:35:20;;;;;;;;;;;8.00;99.90;;;;;;4968181;28;19996;-68
2024/03/09 03:37:46;;;;;;;;;;;8.00;99.90;;;;;;4968322;28;20410;-66
2024/03/09 03:40:14;;;;;;;;;;;8.00;99.90;;;;;;4967978;28;19953;-67
2024/03/09 03:42:40;;;;;;;;;;;8.10;99.90;;;;;;4968108;28;19913;-67
2024/03/09 03:45:11;;;;;;;;;;;7.90;99.90;;;;;;4968520;28;19933;-67
2024/03/09 03:47:37;;;;;;;;;;;7.90;99.90;;;;;;4968851;28;20096;-69
2024/03/09 03:50:03;;;;;;;;;;;8.00;99.90;;;;;;4968237;28;19910;-67
2024/03/09 03:52:29;;;;;;;;;;;8.00;99.90;;;;;;4968058;28;19917;-66
2024/03/09 03:54:55;;;;;;;;;;;8.00;99.60;;;;;;4967466;28;19909;-67
2024/03/09 03:57:21;;;;;;;;;;;8.00;99.90;;;;;;4968150;28;19925;-66
2024/03/09 03:59:47;;;;;;;;;;;8.00;99.90;;;;;;4968430;28;20305;-66
2024/03/09 04:02:13;;;;;;;;;;;7.90;99.90;;;;;;4970466;28;20009;-68
2024/03/09 04:04:39;;;;;;;;;;;7.90;99.90;;;;;;4971195;28;20263;-66
2024/03/09 04:07:05;;;;;;;;;;;7.80;99.90;;;;;;4971043;28;19914;-68
2024/03/09 04:09:30;;;;;;;;;;;7.90;99.50;;;;;;4969886;28;20293;-67
2024/03/09 04:11:56;;;;;;;;;;;7.80;99.90;;;;;;4970671;28;19906;-66
2024/03/09 04:14:26;;;;;;;;;;;7.50;99.90;;;;;;4969103;28;19916;-66
2024/03/09 04:16:54;;;;;;;;;;;7.30;99.90;;;;;;4970984;28;20446;-66
2024/03/09 04:19:20;;;;;;;;;;;7.40;99.90;;;;;;4971070;28;19909;-67
2024/03/09 04:21:45;;;;;;;;;;;7.20;99.90;;;;;;4971562;28;19910;-66
2024/03/09 04:24:11;;;;;;;;;;;7.10;99.90;;;;;;4970068;28;19906;-66
2024/03/09 04:26:37;;;;;;;;;;;7.00;99.90;;;;;;4971713;28;20001;-66
2024/03/09 04:29:02;;;;;;;;;;;7.00;99.90;;;;;;4971808;28;19927;-67
2024/03/09 04:31:32;;;;;;;;;;;7.10;99.90;;;;;;4971719;28;20405;-67
2024/03/09 04:34:01;;;;;;;;;;;7.10;99.90;;;;;;4971308;28;19918;-67
2024/03/09 04:36:29;;;;;;;;;;;7.10;99.90;;;;;;4971760;28;19965;-69
2024/03/09 04:38:59;;;;;;;;;;;7.00;99.90;;;;;;4971645;28;19906;-69
2024/03/09 04:41:25;;;;;;;;;;;6.90;99.90;;;;;;4971790;28;20656;-68
2024/03/09 04:43:50;;;;;;;;;;;6.90;99.90;;;;;;4971177;28;19910;-69
2024/03/09 04:46:16;;;;;;;;;;;6.70;99.90;;;;;;4970217;28;20293;-69
2024/03/09 04:48:41;;;;;;;;;;;6.70;99.90;;;;;;4972824;28;19913;-67
2024/03/09 04:51:07;;;;;;;;;;;6.80;99.90;;;;;;4966296;28;20298;-66
2024/03/09 04:53:33;;;;;;;;;;;6.80;99.90;;;;;;4975885;28;19968;-66
2024/03/09 04:55:59;;;;;;;;;;;7.00;99.90;;;;;;4975104;28;20341;-66
2024/03/09 04:58:24;;;;;;;;;;;6.90;99.90;;;;;;4980507;28;19913;-67
2024/03/09 05:00:50;;;;;;;;;;;6.90;99.90;;;;;;4978622;28;20494;-69
2024/03/09 05:03:17;;;;;;;;;;;7.00;99.90;;;;;;4974018;28;19953;-67
2024/03/09 05:05:43;;;;;;;;;;;7.00;99.80;;;;;;4966501;28;19937;-68
2024/03/09 05:08:08;;;;;;;;;;;7.00;99.90;;;;;;4971024;28;19910;-69
2024/03/09 05:10:34;;;;;;;;;;;7.00;99.10;;;;;;4970309;28;19915;-66
2024/03/09 05:13:00;;;;;;;;;;;7.00;99.10;;;;;;4966203;28;19910;-69
2024/03/09 05:15:26;;;;;;;;;;;7.00;99.80;;;;;;4966312;28;19960;-67
2024/03/09 05:17:52;;;;;;;;;;;7.00;99.60;;;;;;4972463;28;19918;-67
2024/03/09 05:20:22;;;;;;;;;;;7.00;99.70;;;;;;4967609;28;19965;-66
2024/03/09 05:22:48;;;;;;;;;;;7.00;98.80;;;;;;4968615;28;19968;-69
2024/03/09 05:25:14;;;;;;;;;;;7.00;98.60;;;;;;4967205;28;20397;-67
2024/03/09 05:27:43;;;;;;;;;;;7.00;98.90;;;;;;4961007;28;20218;-67
2024/03/09 05:30:13;;;;;;;;;;;7.00;98.70;;;;;;4969929;28;20409;-67
2024/03/09 05:32:38;;;;;;;;;;;7.00;99.30;;;;;;4969616;28;20045;-67
2024/03/09 05:35:11;;;;;;;;;;;7.10;98.00;;;;;;4964931;28;20008;-67
2024/03/09 05:37:37;;;;;;;;;;;7.10;98.10;;;;;;4968838;28;19949;-68
2024/03/09 05:40:05;;;;;;;;;;;7.10;98.50;;;;;;4967844;28;19914;-68
2024/03/09 05:42:31;;;;;;;;;;;7.10;97.50;;;;;;4967188;28;19914;-69
2024/03/09 05:44:56;;;;;;;;;;;7.10;97.80;;;;;;4966920;28;20413;-67
2024/03/09 05:47:22;;;;;;;;;;;7.10;98.10;;;;;;4964113;28;19914;-67
2024/03/09 05:49:47;;;;;;;;;;;7.00;98.10;;;;;;4968466;28;19946;-68
2024/03/09 05:52:13;;;;;;;;;;;7.00;98.80;;;;;;4956877;28;20342;-67
2024/03/09 05:54:39;;;;;;;;;;;7.00;99.20;;;;;;4965915;28;19914;-67
2024/03/09 05:57:04;;;;;;;;;;;6.90;99.30;;;;;;4961234;28;20439;-66
2024/03/09 05:59:32;;;;;;;;;;;7.10;97.60;;;;;;4969646;28;19917;-67
2024/03/09 06:01:58;;;;;;;;;;;7.10;98.50;;;;;;4967233;28;20363;-67
2024/03/09 06:04:23;;;;;;;;;;;7.00;98.50;;;;;;4969096;28;19909;-67
2024/03/09 06:06:48;;;;;;;;;;;7.00;98.90;;;;;;4969331;28;20338;-67
2024/03/09 06:09:15;;;;;;;;;;;7.00;97.90;;;;;;4967156;28;19914;-67
2024/03/09 06:11:42;;;;;;;;;;;7.10;97.00;;;;;;4964881;28;19914;-67
2024/03/09 06:14:07;;;;;;;;;;;7.20;97.20;;;;;;4963092;28;20279;-67
2024/03/09 06:16:33;;;;;;;;;;;7.10;97.20;;;;;;4968634;28;19917;-68
2024/03/09 06:18:59;;;;;;;;;;;7.10;97.30;;;;;;4958163;28;19948;-68
2024/03/09 06:21:25;;;;;;;;;;;7.10;97.70;;;;;;4958899;28;20401;-68
2024/03/09 06:23:50;;;;;;;;;;;7.10;97.40;;;;;;4963330;28;19914;-68
2024/03/09 06:26:16;;;;;;;;;;;7.10;97.80;;;;;;4965695;28;20301;-68
2024/03/09 06:28:43;;;;;;;;;;;7.10;98.10;;;;;;4972986;28;20370;-68
2024/03/09 06:31:08;;;;;;;;;;;7.10;97.80;;;;;;4966370;28;20429;-67
2024/03/09 06:33:34;;;;;;;;;;;7.10;98.40;;;;;;4966320;28;19924;-67
2024/03/09 06:36:04;;;;;;;;;;;7.20;97.50;;;;;;4962635;28;19914;-68
2024/03/09 06:38:32;;;;;;;;;;;7.20;97.50;;;;;;4960883;28;20013;-67
2024/03/09 06:40:57;;;;;;;;;;;7.10;97.80;;;;;;4971419;28;20359;-67
2024/03/09 06:43:22;;;;;;;;;;;7.10;98.00;;;;;;4998776;28;20008;-68
2024/03/09 06:45:49;;;;;;;;;;;7.30;97.40;;;;;;4964125;28;19985;-67
2024/03/09 06:48:15;;;;;;;;;;;7.40;96.20;;;;;;4974192;28;20001;-68
2024/03/09 06:50:46;;;;;;;;;;;7.50;95.80;;;;;;4970155;28;19917;-68
2024/03/09 06:53:12;;;;;;;;;;;7.50;96.20;;;;;;4966994;28;19914;-67
2024/03/09 06:55:38;;;;;;;;;;;7.60;95.80;;;;;;4965678;28;20389;-67
2024/03/09 06:58:03;;;;;;;;;;;7.60;97.20;;;;;;4973280;28;19929;-67
2024/03/09 07:00:29;;;;;;;;;;;7.60;97.60;;;;;;4968527;28;20020;-67
2024/03/09 07:02:58;;;;;;;;;;;7.60;96.70;;;;;;4967177;28;19929;-67
2024/03/09 07:05:26;;;;;;;;;;;7.70;97.00;;;;;;4967782;28;19923;-67
2024/03/09 07:07:51;;;;;;;;;;;8.00;95.20;;;;;;4975490;28;19910;-66
2024/03/09 07:10:17;;;;;;;;;;;8.20;93.80;;;;;;4977116;28;20385;-67
2024/03/09 07:12:43;;;;;;;;;;;8.60;91.90;;;;;;4976665;28;19964;-67
2024/03/09 07:15:15;;;;;;;;;;;8.50;92.10;;;;;;4981865;28;20313;-67
2024/03/09 07:17:44;;;;;;;;;;;8.70;90.50;;;;;;4974771;28;19921;-67
2024/03/09 07:20:13;;;;;;;;;;;8.80;90.90;;;;;;4977233;28;19918;-67
2024/03/09 07:22:49;;;;;;;;;;;9.10;88.60;;;;;;4977227;28;19914;-67
2024/03/09 07:25:15;;;;;;;;;;;9.20;89.60;;;;;;4977246;28;20108;-67
2024/03/09 07:27:42;;;;;;;;;;;9.20;87.60;;;;;;4977471;28;19913;-67
2024/03/09 07:30:08;;;;;;;;;;;9.40;85.40;;;;;;4971039;28;19923;-67
2024/03/09 07:32:34;;;;;;;;;;;9.60;84.90;;;;;;4979611;28;19976;-67
2024/03/09 07:35:00;;;;;;;;;;;9.50;90.10;;;;;;4979254;28;19914;-68
2024/03/09 07:37:26;;;;;;;;;;;9.40;88.90;;;;;;4981591;28;19921;-67
2024/03/09 07:39:53;;;;;;;;;;;9.60;86.90;;;;;;4979023;28;20195;-67
2024/03/09 07:42:18;;;;;;;;;;;9.80;85.70;;;;;;4980950;28;19906;-66
2024/03/09 07:44:44;;;;;;;;;;;10.50;80.60;;;;;;4980584;28;20285;-68
2024/03/09 07:47:09;;;;;;;;;;;10.50;80.90;;;;;;4979916;28;19964;-69
2024/03/09 07:49:37;;;;;;;;;;;10.70;79.50;;;;;;4984907;28;20364;-69
2024/03/09 07:52:05;;;;;;;;;;;10.60;82.00;;;;;;4979899;28;20345;-69
2024/03/09 07:54:31;;;;;;;;;;;10.90;77.00;;;;;;4978804;28;19920;-66
2024/03/09 07:56:57;;;;;;;;;;;11.30;77.50;;;;;;4977923;28;19918;-68
2024/03/09 07:59:23;;;;;;;;;;;11.20;76.70;;;;;;4980715;28;20562;-70
2024/03/09 08:01:49;;;;;;;;;;;11.10;78.50;;;;;;4980509;28;20437;-69
2024/03/09 08:04:15;;;;;;;;;;;11.20;76.80;;;;;;4987319;28;20024;-70
2024/03/09 08:06:43;;;;;;;;;;;11.10;76.20;;;;;;4978620;28;19968;-69
2024/03/09 08:09:13;;;;;;;;;;;11.30;75.00;;;;;;4980104;28;20374;-70
2024/03/09 08:11:39;;;;;;;;;;;11.20;77.30;;;;;;4980184;28;19933;-68
2024/03/09 08:14:05;;;;;;;;;;;11.30;73.10;;;;;;4978766;28;19909;-68
2024/03/09 08:16:32;;;;;;;;;;;11.50;73.70;;;;;;4986042;28;20432;-67
2024/03/09 08:18:58;;;;;;;;;;;11.60;73.50;;;;;;4980133;28;19913;-66
2024/03/09 08:21:24;;;;;;;;;;;11.70;73.10;;;;;;4978460;28;20413;-66
2024/03/09 08:23:52;;;;;;;;;;;11.70;75.20;;;;;;4978629;28;20366;-67
2024/03/09 08:26:18;;;;;;;;;;;11.80;74.00;;;;;;4980248;28;19921;-66
2024/03/09 08:28:44;;;;;;;;;;;12.00;73.30;;;;;;4979374;28;19905;-67
2024/03/09 08:31:09;;;;;;;;;;;12.10;72.90;;;;;;4978210;28;20427;-67
2024/03/09 08:33:35;;;;;;;;;;;12.10;72.70;;;;;;4977619;28;20425;-66
2024/03/09 08:36:02;;;;;;;;;;;12.30;72.10;;;;;;4976218;28;19917;-67
2024/03/09 08:38:28;;;;;;;;;;;12.30;70.00;;;;;;4974440;28;20015;-68
2024/03/09 08:40:53;;;;;;;;;;;12.30;71.20;;;;;;4978633;28;20150;-67
2024/03/09 08:43:19;;;;;;;;;;;12.40;71.60;;;;;;4980712;28;19921;-69
2024/03/09 08:45:45;;;;;;;;;;;12.50;68.10;;;;;;4982197;28;19913;-67
2024/03/09 08:48:12;;;;;;;;;;;12.70;68.90;;;;;;4977527;28;19909;-66
2024/03/09 08:50:38;;;;;;;;;;;12.90;66.90;;;;;;4982061;28;19984;-66
2024/03/09 08:53:04;;;;;;;;;;;13.00;69.50;;;;;;4983762;28;19910;-67
2024/03/09 08:55:29;;;;;;;;;;;13.20;66.60;;;;;;4975175;28;19913;-67
2024/03/09 08:57:55;;;;;;;;;;;13.40;68.10;;;;;;4980327;28;19918;-68
2024/03/09 09:00:24;;;;;;;;;;;13.60;66.70;;;;;;4979480;28;19910;-68
2024/03/09 09:02:51;;;;;;;;;;;13.60;66.70;;;;;;4980904;28;19944;-67
2024/03/09 09:05:18;;;;;;;;;;;13.80;64.50;;;;;;4974975;28;19920;-69
2024/03/09 09:07:47;;;;;;;;;;;13.90;66.90;;;;;;4979441;28;19910;-67
2024/03/09 09:10:14;;;;;;;;;;;14.10;67.80;;;;;;4978583;28;19914;-67
2024/03/09 09:12:43;;;;;;;;;;;13.90;63.00;;;;;;4977866;28;19961;-68
2024/03/09 09:15:09;;;;;;;;;;;13.80;66.60;;;;;;4969584;28;19968;-69
2024/03/09 09:17:35;;;;;;;;;;;13.60;66.00;;;;;;4976255;28;19922;-70
2024/03/09 09:20:01;;;;;;;;;;;13.50;63.90;;;;;;4983200;28;19916;-69
2024/03/09 09:22:26;;;;;;;;;;;13.60;65.50;;;;;;4969406;28;19910;-70
2024/03/09 09:24:52;;;;;;;;;;;13.80;66.40;;;;;;4976174;28;20687;-71
2024/03/09 09:27:18;;;;;;;;;;;14.00;63.40;;;;;;4977288;28;20395;-69
2024/03/09 09:29:44;;;;;;;;;;;14.20;62.70;;;;;;4982795;28;19932;-68
2024/03/09 09:32:09;;;;;;;;;;;14.40;63.30;;;;;;4976382;28;20473;-68
2024/03/09 09:34:35;;;;;;;;;;;14.40;62.30;;;;;;4982312;28;19958;-69
2024/03/09 09:37:00;;;;;;;;;;;14.20;61.50;;;;;;4978569;28;19933;-68
2024/03/09 09:39:29;;;;;;;;;;;14.10;63.30;;;;;;4976902;28;19954;-68
2024/03/09 09:41:56;;;;;;;;;;;13.90;62.80;;;;;;4980404;28;19910;-69
2024/03/09 09:44:22;;;;;;;;;;;14.00;63.20;;;;;;4977152;28;19910;-71
2024/03/09 09:46:47;;;;;;;;;;;14.00;61.20;;;;;;4979935;28;20296;-69
2024/03/09 09:49:14;;;;;;;;;;;14.00;62.30;;;;;;4974726;28;20378;-68
2024/03/09 09:51:39;;;;;;;;;;;13.90;62.10;;;;;;4972460;28;19917;-70
2024/03/09 09:54:05;;;;;;;;;;;13.80;63.50;;;;;;4979932;28;19914;-68
2024/03/09 09:56:31;;;;;;;;;;;13.80;63.30;;;;;;4975451;28;19941;-69
2024/03/09 09:58:58;;;;;;;;;;;13.80;64.40;;;;;;4978453;28;19921;-69
2024/03/09 10:01:23;;;;;;;;;;;13.80;64.00;;;;;;4973580;28;19914;-69
2024/03/09 10:03:49;;;;;;;;;;;13.60;63.80;;;;;;4981512;28;19929;-70
2024/03/09 10:06:21;;;;;;;;;;;13.60;62.90;;;;;;4974915;28;19961;-69
2024/03/09 10:08:48;;;;;;;;;;;13.60;61.30;;;;;;4976676;28;20454;-70
2024/03/09 10:12:33;;;;;;;;;;;13.60;63.80;;;;;;5111005;27;19938;-70
2024/03/09 10:15:10;;;;;;;;;;;13.60;63.60;;;;;;5115027;28;19915;-69
2024/03/09 10:17:35;;;;;;;;;;;13.50;63.70;;;;;;5116357;27;19920;-71
2024/03/09 10:20:06;;;;;;;;;;;13.60;63.80;;;;;;5110242;28;19922;-71
2024/03/09 10:22:34;;;;;;;;;;;13.60;61.70;;;;;;5114838;27;19965;-69
2024/03/09 10:25:00;;;;;;;;;;;13.60;63.10;;;;;;5111530;27;20369;-69
2024/03/09 10:27:28;;;;;;;;;;;13.60;63.60;;;;;;5111657;28;19912;-69
2024/03/09 10:30:06;;;;;;;;;;;13.60;62.10;;;;;;5107897;27;19912;-69
2024/03/09 10:32:31;;;;;;;;;;;13.70;59.70;;;;;;5093642;28;19920;-69
2024/03/09 10:35:00;;;;;;;;;;;13.80;62.10;;;;;;5090650;28;19924;-69
2024/03/09 10:37:26;;;;;;;;;;;13.80;62.10;;;;;;5094766;28;19942;-69
2024/03/09 10:39:51;;;;;;;;;;;13.90;60.90;;;;;;5094507;28;20186;-70
2024/03/09 10:42:19;;;;;;;;;;;14.00;59.00;;;;;;5093015;28;19951;-69
2024/03/09 10:44:45;;;;;;;;;;;14.10;60.40;;;;;;5092594;28;19916;-70
2024/03/09 10:47:12;;;;;;;;;;;14.10;58.30;;;;;;5096812;28;19943;-70
2024/03/09 10:49:41;;;;;;;;;;;14.10;58.80;;;;;;5091938;28;20006;-69
2024/03/09 10:52:08;;;;;;;;;;;14.10;59.70;;;;;;5092221;28;19958;-70
2024/03/09 10:54:54;;;;;;;;;;;14.10;60.30;;;;;;5096973;28;19913;-70
2024/03/09 10:57:21;;;;;;;;;;;14.10;60.90;;;;;;5094275;28;19968;-69
2024/03/09 10:59:48;;;;;;;;;;;14.10;59.70;;;;;;5099602;28;20284;-69
2024/03/09 11:02:16;;;;;;;;;;;14.20;59.10;;;;;;5089469;28;20011;-71
2024/03/09 11:04:49;;;;;;;;;;;14.10;60.90;;;;;;5103533;28;19977;-69
2024/03/09 11:07:22;;;;;;;;;;;14.10;60.70;;;;;;5099112;28;19935;-70
2024/03/09 11:09:49;;;;;;;;;;;14.10;59.40;;;;;;5091577;28;19916;-72
2024/03/09 11:12:16;;;;;;;;;;;14.10;58.60;;;;;;5095166;28;19939;-70
2024/03/09 11:14:51;;;;;;;;;;;14.20;58.80;;;;;;5090637;28;20072;-69
2024/03/09 11:17:18;;;;;;;;;;;14.30;61.00;;;;;;5092237;28;20335;-68
2024/03/09 11:19:48;;;;;;;;;;;14.30;57.80;;;;;;5090487;28;20018;-70
2024/03/09 11:22:33;;;;;;;;;;;14.30;59.90;;;;;;5087032;28;19920;-68
2024/03/09 11:24:59;;;;;;;;;;;14.30;59.70;;;;;;5077499;28;20174;-70
2024/03/09 11:27:31;;;;;;;;;;;14.30;58.10;;;;;;5077799;28;19916;-69
2024/03/09 11:29:56;;;;;;;;;;;14.40;59.80;;;;;;5078530;28;19916;-69
2024/03/09 11:32:22;;;;;;;;;;;14.40;60.10;;;;;;5078750;28;19948;-71
2024/03/09 11:34:48;;;;;;;;;;;14.40;59.20;;;;;;5079287;28;19967;-69
2024/03/09 11:37:15;;;;;;;;;;;14.40;59.30;;;;;;5079412;28;20023;-70
2024/03/09 11:39:40;;;;;;;;;;;14.40;59.90;;;;;;5078483;28;19912;-70
2024/03/09 11:42:11;;;;;;;;;;;14.40;59.60;;;;;;5079895;28;19912;-71
2024/03/09 11:44:38;;;;;;;;;;;14.40;59.30;;;;;;5084948;28;20276;-70
2024/03/09 11:47:04;;;;;;;;;;;14.30;59.10;;;;;;5083162;28;19924;-69
2024/03/09 11:49:29;;;;;;;;;;;14.40;59.40;;;;;;5084211;28;19912;-69
2024/03/09 11:51:58;;;;;;;;;;;14.40;59.50;;;;;;5082838;28;19943;-70
2024/03/09 11:54:25;;;;;;;;;;;14.30;60.50;;;;;;5083480;28;19935;-69
2024/03/09 11:56:51;;;;;;;;;;;14.30;59.60;;;;;;5086533;28;19920;-70
2024/03/09 11:59:17;;;;;;;;;;;14.30;59.50;;;;;;5079381;28;20299;-71
2024/03/09 12:01:43;;;;;;;;;;;14.40;60.30;;;;;;5081464;28;19915;-70
2024/03/09 12:04:09;;;;;;;;;;;14.40;59.60;;;;;;5069942;28;20022;-69
2024/03/09 12:06:35;;;;;;;;;;;14.40;61.60;;;;;;5079805;28;20009;-69
2024/03/09 12:09:01;;;;;;;;;;;14.40;61.20;;;;;;5078593;28;19957;-70
2024/03/09 12:11:32;;;;;;;;;;;14.40;59.50;;;;;;5076925;28;19920;-69
2024/03/09 12:13:58;;;;;;;;;;;14.50;59.90;;;;;;5077553;28;19923;-69
2024/03/09 12:16:24;;;;;;;;;;;14.40;60.10;;;;;;5073721;28;20323;-70
2024/03/09 12:18:50;;;;;;;;;;;14.40;60.30;;;;;;5078987;28;19912;-70
2024/03/09 12:21:19;;;;;;;;;;;14.40;60.00;;;;;;5079630;28;19916;-70
2024/03/09 12:23:54;;;;;;;;;;;14.40;60.80;;;;;;5077776;28;21035;-69
2024/03/09 12:26:20;;;;;;;;;;;14.40;61.90;;;;;;5077047;28;19909;-70
2024/03/09 12:28:46;;;;;;;;;;;14.30;61.40;;;;;;5078030;28;19981;-70
2024/03/09 12:31:15;;;;;;;;;;;14.40;61.90;;;;;;5078216;28;19920;-70
2024/03/09 12:33:42;;;;;;;;;;;14.40;60.50;;;;;;5078138;28;19912;-70
2024/03/09 12:36:08;;;;;;;;;;;14.50;61.10;;;;;;5076556;28;19912;-71
2024/03/09 12:38:33;;;;;;;;;;;14.50;61.00;;;;;;5078619;28;20393;-71
2024/03/09 12:40:59;;;;;;;;;;;14.50;62.20;;;;;;5077619;28;19923;-72
2024/03/09 12:43:24;;;;;;;;;;;14.50;61.60;;;;;;5075866;28;19916;-72
2024/03/09 12:45:54;;;;;;;;;;;14.50;61.60;;;;;;5085590;28;19999;-72
2024/03/09 12:48:23;;;;;;;;;;;14.60;60.90;;;;;;5078272;28;19912;-70
2024/03/09 12:50:51;;;;;;;;;;;14.60;62.00;;;;;;5074038;28;19924;-71
2024/03/09 12:53:21;;;;;;;;;;;14.70;62.70;;;;;;5079683;28;19920;-72
2024/03/09 12:55:49;;;;;;;;;;;14.90;60.80;;;;;;5076110;28;19939;-71
2024/03/09 12:58:19;;;;;;;;;;;14.90;62.30;;;;;;5077053;28;20050;-69
2024/03/09 13:00:53;;;;;;;;;;;15.00;61.20;;;;;;5081465;28;19916;-69
2024/03/09 13:03:20;;;;;;;;;;;15.10;60.70;;;;;;5089010;28;20408;-70
2024/03/09 13:05:50;;;;;;;;;;;15.10;61.60;;;;;;5087723;28;20014;-69
2024/03/09 13:08:23;;;;;;;;;;;15.10;61.60;;;;;;5076496;28;20425;-69
2024/03/09 13:10:49;;;;;;;;;;;15.00;60.60;;;;;;5073302;28;19924;-68
2024/03/09 13:13:15;;;;;;;;;;;15.00;60.60;;;;;;5078133;28;20519;-69
2024/03/09 13:15:44;;;;;;;;;;;15.10;61.30;;;;;;5067976;28;20391;-72
2024/03/09 13:18:09;;;;;;;;;;;15.20;59.90;;;;;;5075706;28;19997;-69
2024/03/09 13:20:39;;;;;;;;;;;15.20;60.70;;;;;;5078739;28;20383;-70
2024/03/09 13:23:05;;;;;;;;;;;15.20;59.60;;;;;;5077892;28;19924;-69
2024/03/09 13:25:33;;;;;;;;;;;15.30;61.40;;;;;;5077393;28;19919;-68
2024/03/09 13:28:00;;;;;;;;;;;15.40;60.00;;;;;;5071850;28;19924;-69
2024/03/09 13:32:11;;;;;;;0.98;0.70;;;15.60;62.00;;;;;;5072459;28;20559;-69
2024/03/09 13:34:38;;;;;;;0.77;0.40;;;15.70;60.80;;;;;;5073773;28;20071;-68
2024/03/09 13:37:04;;;;;;;3.47;0.60;;;15.80;58.70;;;;;;5074323;28;20101;-67
2024/03/09 13:39:34;;;;;;;4.33;0.40;;;15.80;60.80;;;;;;5068687;28;20033;-69
2024/03/09 13:42:08;;;;;;;3.63;0.85;;;15.90;60.00;;;;;;5071476;28;20037;-68
2024/03/09 13:44:33;;;;;;;2.05;0.40;;;15.80;59.70;;;;;;5064645;28;20033;-68
2024/03/09 13:46:59;;;;;;;0.70;0.40;;;15.80;60.70;;;;;;5072503;28;20102;-71
2024/03/09 13:49:25;;;;;;;3.05;0.47;;;15.90;58.70;;;;;;5076706;28;20035;-70
2024/03/09 13:51:50;;;;;;;3.37;1.27;;;15.80;60.10;;;;;;5070218;28;20098;-68
2024/03/09 13:54:17;;;;;;;4.10;0.60;;;15.90;59.80;;;;;;5072936;28;20456;-66
2024/03/09 13:56:42;;;;;;;0.65;0.47;;;16.00;60.70;;;;;;5078179;28;20481;-66
2024/03/09 13:59:13;;;;;;;0.40;0.30;;;16.10;58.30;;;;;;5070661;28;20532;-66
2024/03/09 14:01:39;;;;;;;0.55;0.40;;;16.10;60.50;;;;;;5074979;28;20404;-68
2024/03/09 14:04:05;;;;;;;0.63;0.40;;;16.10;59.30;;;;;;5066480;28;20025;-67
2024/03/09 14:06:32;;;;;;;2.20;0.52;;;16.00;59.30;;;;;;5063018;28;20448;-68
2024/03/09 14:08:59;;;;;;;1.40;0.68;;;16.10;61.40;;;;;;5065634;28;20465;-72
2024/03/09 14:11:28;;;;;;;0.68;0.45;;;16.00;58.90;;;;;;5066951;28;20047;-71
2024/03/09 14:13:55;;;;;;;1.77;0.50;;;15.90;57.90;;;;;;5070378;28;20407;-68
2024/03/09 14:16:20;;;;;;;1.25;0.55;;;15.70;59.60;;;;;;5069764;28;20040;-67
2024/03/09 14:18:49;;;;;;;1.57;0.80;;;15.60;59.60;;;;;;5067838;28;20044;-68